sensor_id;sensor_type;location;lat;lon;timestamp;P1;durP1;ratioP1;P2;durP2;ratioP2
35540;SDS011;21650;48.840;9.162;2023-08-30T00:00:14;12.30;;;8.10;;
35540;SDS011;21650;48.840;9.162;2023-08-30T00:02:42;9.43;;;8.60;;
35540;SDS011;21650;48.840;9.162;2023-08-30T00:05:09;9.60;;;8.70;;
35540;SDS011;21650;48.840;9.162;2023-08-30T00:07:35;9.53;;;8.53;;
35540;SDS011;21650;48.840;9.162;2023-08-30T00:10:00;10.77;;;9.63;;
35540;SDS011;21650;48.840;9.162;2023-08-30T00:12:27;10.67;;;9.23;;
35540;SDS011;21650;48.840;9.162;2023-08-30T00:14:53;11.50;;;10.20;;
35540;SDS011;21650;48.840;9.162;2023-08-30T00:17:18;11.97;;;9.57;;
35540;SDS011;21650;48.840;9.162;2023-08-30T00:19:45;10.87;;;9.77;;
35540;SDS011;21650;48.840;9.162;2023-08-30T00:22:10;11.27;;;10.17;;
35540;SDS011;21650;48.840;9.162;2023-08-30T00:24:37;10.43;;;9.37;;
35540;SDS011;21650;48.840;9.162;2023-08-30T00:27:02;9.87;;;8.90;;
35540;SDS011;21650;48.840;9.162;2023-08-30T00:29:28;10.30;;;9.23;;
35540;SDS011;21650;48.840;9.162;2023-08-30T00:31:54;11.00;;;8.30;;
35540;SDS011;21650;48.840;9.162;2023-08-30T00:34:20;10.43;;;9.43;;
35540;SDS011;21650;48.840;9.162;2023-08-30T00:36:46;13.43;;;9.13;;
35540;SDS011;21650;48.840;9.162;2023-08-30T00:39:12;10.67;;;9.43;;
35540;SDS011;21650;48.840;9.162;2023-08-30T00:41:38;9.57;;;8.30;;
35540;SDS011;21650;48.840;9.162;2023-08-30T00:44:04;10.00;;;9.00;;
35540;SDS011;21650;48.840;9.162;2023-08-30T00:46:30;12.57;;;8.70;;
35540;SDS011;21650;48.840;9.162;2023-08-30T00:48:57;10.80;;;9.27;;
35540;SDS011;21650;48.840;9.162;2023-08-30T00:51:24;11.07;;;9.63;;
35540;SDS011;21650;48.840;9.162;2023-08-30T00:53:50;9.37;;;8.53;;
35540;SDS011;21650;48.840;9.162;2023-08-30T00:56:16;10.60;;;9.10;;
35540;SDS011;21650;48.840;9.162;2023-08-30T00:58:43;10.13;;;9.20;;
35540;SDS011;21650;48.840;9.162;2023-08-30T01:01:09;10.97;;;9.77;;
35540;SDS011;21650;48.840;9.162;2023-08-30T01:03:34;11.67;;;8.67;;
35540;SDS011;21650;48.840;9.162;2023-08-30T01:06:00;14.03;;;9.43;;
35540;SDS011;21650;48.840;9.162;2023-08-30T01:08:26;9.17;;;8.37;;
35540;SDS011;21650;48.840;9.162;2023-08-30T01:13:50;10.13;;;9.13;;
35540;SDS011;21650;48.840;9.162;2023-08-30T01:16:23;10.93;;;9.00;;
35540;SDS011;21650;48.840;9.162;2023-08-30T01:18:49;9.00;;;8.10;;
35540;SDS011;21650;48.840;9.162;2023-08-30T01:23:56;12.07;;;9.30;;
35540;SDS011;21650;48.840;9.162;2023-08-30T01:26:29;10.80;;;7.67;;
35540;SDS011;21650;48.840;9.162;2023-08-30T01:29:10;8.10;;;7.27;;
35540;SDS011;21650;48.840;9.162;2023-08-30T01:31:37;8.33;;;7.47;;
35540;SDS011;21650;48.840;9.162;2023-08-30T01:34:05;8.40;;;6.53;;
35540;SDS011;21650;48.840;9.162;2023-08-30T01:36:31;6.73;;;6.13;;
35540;SDS011;21650;48.840;9.162;2023-08-30T01:39:00;7.63;;;6.80;;
35540;SDS011;21650;48.840;9.162;2023-08-30T01:41:26;8.10;;;6.90;;
35540;SDS011;21650;48.840;9.162;2023-08-30T01:43:53;7.37;;;6.67;;
35540;SDS011;21650;48.840;9.162;2023-08-30T01:46:20;6.73;;;6.10;;
35540;SDS011;21650;48.840;9.162;2023-08-30T01:48:47;9.10;;;6.43;;
35540;SDS011;21650;48.840;9.162;2023-08-30T01:51:14;7.33;;;6.63;;
35540;SDS011;21650;48.840;9.162;2023-08-30T01:53:42;7.23;;;6.50;;
35540;SDS011;21650;48.840;9.162;2023-08-30T01:56:09;8.00;;;7.20;;
35540;SDS011;21650;48.840;9.162;2023-08-30T01:58:34;7.73;;;6.97;;
35540;SDS011;21650;48.840;9.162;2023-08-30T02:01:00;9.23;;;7.03;;
35540;SDS011;21650;48.840;9.162;2023-08-30T02:03:26;8.70;;;7.13;;
35540;SDS011;21650;48.840;9.162;2023-08-30T02:11:22;8.47;;;6.93;;
35540;SDS011;21650;48.840;9.162;2023-08-30T02:13:50;7.33;;;6.73;;
35540;SDS011;21650;48.840;9.162;2023-08-30T02:16:18;7.70;;;7.00;;
35540;SDS011;21650;48.840;9.162;2023-08-30T02:18:45;7.47;;;6.77;;
35540;SDS011;21650;48.840;9.162;2023-08-30T02:21:11;8.10;;;7.30;;
35540;SDS011;21650;48.840;9.162;2023-08-30T02:23:37;8.13;;;7.33;;
35540;SDS011;21650;48.840;9.162;2023-08-30T02:26:03;8.17;;;7.37;;
35540;SDS011;21650;48.840;9.162;2023-08-30T02:28:29;10.03;;;7.67;;
35540;SDS011;21650;48.840;9.162;2023-08-30T02:30:54;8.77;;;7.17;;
35540;SDS011;21650;48.840;9.162;2023-08-30T02:33:20;8.43;;;7.60;;
35540;SDS011;21650;48.840;9.162;2023-08-30T02:35:46;9.93;;;7.37;;
35540;SDS011;21650;48.840;9.162;2023-08-30T02:38:12;10.63;;;7.70;;
35540;SDS011;21650;48.840;9.162;2023-08-30T02:40:37;8.67;;;7.77;;
35540;SDS011;21650;48.840;9.162;2023-08-30T02:43:03;8.33;;;7.53;;
35540;SDS011;21650;48.840;9.162;2023-08-30T02:45:28;11.83;;;8.00;;
35540;SDS011;21650;48.840;9.162;2023-08-30T02:47:55;8.23;;;7.53;;
35540;SDS011;21650;48.840;9.162;2023-08-30T02:50:22;9.00;;;8.10;;
35540;SDS011;21650;48.840;9.162;2023-08-30T02:52:48;9.17;;;8.27;;
35540;SDS011;21650;48.840;9.162;2023-08-30T02:55:13;8.50;;;7.70;;
35540;SDS011;21650;48.840;9.162;2023-08-30T02:57:39;12.50;;;9.20;;
35540;SDS011;21650;48.840;9.162;2023-08-30T03:00:05;8.47;;;7.70;;
35540;SDS011;21650;48.840;9.162;2023-08-30T03:02:31;10.63;;;8.27;;
35540;SDS011;21650;48.840;9.162;2023-08-30T03:04:58;10.53;;;8.53;;
35540;SDS011;21650;48.840;9.162;2023-08-30T03:07:24;8.70;;;7.63;;
35540;SDS011;21650;48.840;9.162;2023-08-30T03:09:53;10.20;;;8.07;;
35540;SDS011;21650;48.840;9.162;2023-08-30T03:12:19;10.13;;;7.93;;
35540;SDS011;21650;48.840;9.162;2023-08-30T03:14:45;14.80;;;7.97;;
35540;SDS011;21650;48.840;9.162;2023-08-30T03:17:11;9.77;;;8.07;;
35540;SDS011;21650;48.840;9.162;2023-08-30T03:19:37;9.47;;;8.07;;
35540;SDS011;21650;48.840;9.162;2023-08-30T03:22:02;9.57;;;7.93;;
35540;SDS011;21650;48.840;9.162;2023-08-30T03:24:28;8.67;;;7.30;;
35540;SDS011;21650;48.840;9.162;2023-08-30T03:26:54;9.33;;;7.50;;
35540;SDS011;21650;48.840;9.162;2023-08-30T03:29:20;11.20;;;8.17;;
35540;SDS011;21650;48.840;9.162;2023-08-30T03:31:45;8.23;;;7.43;;
35540;SDS011;21650;48.840;9.162;2023-08-30T03:34:11;13.43;;;8.53;;
35540;SDS011;21650;48.840;9.162;2023-08-30T03:36:37;9.47;;;8.57;;
35540;SDS011;21650;48.840;9.162;2023-08-30T03:39:03;9.07;;;8.17;;
35540;SDS011;21650;48.840;9.162;2023-08-30T03:41:29;11.10;;;8.00;;
35540;SDS011;21650;48.840;9.162;2023-08-30T03:43:54;9.90;;;8.37;;
35540;SDS011;21650;48.840;9.162;2023-08-30T03:46:20;10.00;;;7.90;;
35540;SDS011;21650;48.840;9.162;2023-08-30T03:48:45;9.00;;;8.07;;
35540;SDS011;21650;48.840;9.162;2023-08-30T03:51:11;11.67;;;8.10;;
35540;SDS011;21650;48.840;9.162;2023-08-30T03:53:37;8.37;;;7.40;;
35540;SDS011;21650;48.840;9.162;2023-08-30T03:56:03;8.80;;;7.97;;
35540;SDS011;21650;48.840;9.162;2023-08-30T03:58:29;9.50;;;8.03;;
35540;SDS011;21650;48.840;9.162;2023-08-30T04:00:54;11.20;;;8.57;;
35540;SDS011;21650;48.840;9.162;2023-08-30T04:03:22;8.77;;;7.87;;
35540;SDS011;21650;48.840;9.162;2023-08-30T04:05:47;11.17;;;8.27;;
35540;SDS011;21650;48.840;9.162;2023-08-30T04:08:19;8.20;;;7.40;;
35540;SDS011;21650;48.840;9.162;2023-08-30T04:10:44;9.17;;;8.27;;
35540;SDS011;21650;48.840;9.162;2023-08-30T04:13:12;9.27;;;7.97;;
35540;SDS011;21650;48.840;9.162;2023-08-30T04:15:38;8.40;;;7.33;;
35540;SDS011;21650;48.840;9.162;2023-08-30T04:18:04;9.43;;;8.50;;
35540;SDS011;21650;48.840;9.162;2023-08-30T04:20:31;10.47;;;8.37;;
35540;SDS011;21650;48.840;9.162;2023-08-30T04:22:58;8.63;;;7.80;;
35540;SDS011;21650;48.840;9.162;2023-08-30T04:25:26;11.40;;;7.77;;
35540;SDS011;21650;48.840;9.162;2023-08-30T04:27:56;10.33;;;7.63;;
35540;SDS011;21650;48.840;9.162;2023-08-30T04:30:22;12.03;;;8.33;;
35540;SDS011;21650;48.840;9.162;2023-08-30T04:32:47;8.50;;;7.70;;
35540;SDS011;21650;48.840;9.162;2023-08-30T04:35:13;8.53;;;7.73;;
35540;SDS011;21650;48.840;9.162;2023-08-30T04:37:38;10.80;;;7.67;;
35540;SDS011;21650;48.840;9.162;2023-08-30T04:40:05;9.90;;;8.90;;
35540;SDS011;21650;48.840;9.162;2023-08-30T04:42:33;9.30;;;8.07;;
35540;SDS011;21650;48.840;9.162;2023-08-30T04:44:58;10.73;;;8.07;;
35540;SDS011;21650;48.840;9.162;2023-08-30T04:47:25;9.53;;;8.60;;
35540;SDS011;21650;48.840;9.162;2023-08-30T04:49:52;9.80;;;8.80;;
35540;SDS011;21650;48.840;9.162;2023-08-30T04:52:18;10.33;;;9.00;;
35540;SDS011;21650;48.840;9.162;2023-08-30T04:54:44;9.83;;;8.83;;
35540;SDS011;21650;48.840;9.162;2023-08-30T04:57:10;10.60;;;8.67;;
35540;SDS011;21650;48.840;9.162;2023-08-30T04:59:39;9.33;;;8.37;;
35540;SDS011;21650;48.840;9.162;2023-08-30T05:02:05;12.07;;;9.53;;
35540;SDS011;21650;48.840;9.162;2023-08-30T05:04:31;9.67;;;7.90;;
35540;SDS011;21650;48.840;9.162;2023-08-30T05:06:57;9.67;;;8.67;;
35540;SDS011;21650;48.840;9.162;2023-08-30T05:09:22;9.83;;;8.83;;
35540;SDS011;21650;48.840;9.162;2023-08-30T05:11:50;10.93;;;8.33;;
35540;SDS011;21650;48.840;9.162;2023-08-30T05:14:16;10.33;;;9.07;;
35540;SDS011;21650;48.840;9.162;2023-08-30T05:16:41;11.53;;;9.20;;
35540;SDS011;21650;48.840;9.162;2023-08-30T05:19:07;9.50;;;8.60;;
35540;SDS011;21650;48.840;9.162;2023-08-30T05:21:33;11.03;;;9.10;;
35540;SDS011;21650;48.840;9.162;2023-08-30T05:23:58;9.87;;;8.83;;
35540;SDS011;21650;48.840;9.162;2023-08-30T05:26:24;13.07;;;8.90;;
35540;SDS011;21650;48.840;9.162;2023-08-30T05:28:49;9.53;;;7.73;;
35540;SDS011;21650;48.840;9.162;2023-08-30T05:31:15;9.10;;;8.20;;
35540;SDS011;21650;48.840;9.162;2023-08-30T05:33:40;9.80;;;8.87;;
35540;SDS011;21650;48.840;9.162;2023-08-30T05:36:06;8.87;;;7.97;;
35540;SDS011;21650;48.840;9.162;2023-08-30T05:38:31;10.20;;;9.20;;
35540;SDS011;21650;48.840;9.162;2023-08-30T05:40:57;11.23;;;8.73;;
35540;SDS011;21650;48.840;9.162;2023-08-30T05:43:23;12.97;;;8.93;;
35540;SDS011;21650;48.840;9.162;2023-08-30T05:45:48;9.87;;;8.07;;
35540;SDS011;21650;48.840;9.162;2023-08-30T05:48:14;9.50;;;8.60;;
35540;SDS011;21650;48.840;9.162;2023-08-30T05:50:39;11.87;;;7.87;;
35540;SDS011;21650;48.840;9.162;2023-08-30T05:53:05;10.80;;;8.87;;
35540;SDS011;21650;48.840;9.162;2023-08-30T05:55:31;11.67;;;9.80;;
35540;SDS011;21650;48.840;9.162;2023-08-30T05:57:57;12.80;;;9.70;;
35540;SDS011;21650;48.840;9.162;2023-08-30T06:00:22;10.13;;;9.13;;
35540;SDS011;21650;48.840;9.162;2023-08-30T06:02:50;10.40;;;9.40;;
35540;SDS011;21650;48.840;9.162;2023-08-30T06:05:16;10.20;;;9.20;;
35540;SDS011;21650;48.840;9.162;2023-08-30T06:07:42;10.53;;;9.07;;
35540;SDS011;21650;48.840;9.162;2023-08-30T06:10:08;14.73;;;9.47;;
35540;SDS011;21650;48.840;9.162;2023-08-30T06:12:34;11.20;;;9.50;;
35540;SDS011;21650;48.840;9.162;2023-08-30T06:14:59;11.00;;;9.90;;
35540;SDS011;21650;48.840;9.162;2023-08-30T06:17:25;14.20;;;10.03;;
35540;SDS011;21650;48.840;9.162;2023-08-30T06:19:50;12.53;;;10.17;;
35540;SDS011;21650;48.840;9.162;2023-08-30T06:22:16;11.37;;;10.00;;
35540;SDS011;21650;48.840;9.162;2023-08-30T06:24:42;12.07;;;9.07;;
35540;SDS011;21650;48.840;9.162;2023-08-30T06:27:08;10.27;;;9.13;;
35540;SDS011;21650;48.840;9.162;2023-08-30T06:29:33;10.47;;;9.00;;
35540;SDS011;21650;48.840;9.162;2023-08-30T06:31:59;8.90;;;8.10;;
35540;SDS011;21650;48.840;9.162;2023-08-30T06:34:25;9.40;;;8.27;;
35540;SDS011;21650;48.840;9.162;2023-08-30T06:36:50;9.00;;;8.10;;
35540;SDS011;21650;48.840;9.162;2023-08-30T06:39:17;8.90;;;7.87;;
35540;SDS011;21650;48.840;9.162;2023-08-30T06:41:42;8.30;;;7.27;;
35540;SDS011;21650;48.840;9.162;2023-08-30T06:44:08;9.53;;;7.37;;
35540;SDS011;21650;48.840;9.162;2023-08-30T06:46:34;8.03;;;7.00;;
35540;SDS011;21650;48.840;9.162;2023-08-30T06:48:59;8.70;;;7.87;;
35540;SDS011;21650;48.840;9.162;2023-08-30T06:51:25;9.77;;;8.17;;
35540;SDS011;21650;48.840;9.162;2023-08-30T06:53:50;7.23;;;6.53;;
35540;SDS011;21650;48.840;9.162;2023-08-30T06:56:16;8.10;;;6.40;;
35540;SDS011;21650;48.840;9.162;2023-08-30T06:58:42;7.17;;;6.47;;
35540;SDS011;21650;48.840;9.162;2023-08-30T07:01:07;8.60;;;6.90;;
35540;SDS011;21650;48.840;9.162;2023-08-30T07:03:33;6.90;;;6.20;;
35540;SDS011;21650;48.840;9.162;2023-08-30T07:05:58;8.17;;;6.53;;
35540;SDS011;21650;48.840;9.162;2023-08-30T07:08:24;9.17;;;7.47;;
35540;SDS011;21650;48.840;9.162;2023-08-30T07:10:51;8.10;;;7.33;;
35540;SDS011;21650;48.840;9.162;2023-08-30T07:13:16;7.40;;;6.70;;
35540;SDS011;21650;48.840;9.162;2023-08-30T07:15:42;8.53;;;7.73;;
35540;SDS011;21650;48.840;9.162;2023-08-30T07:18:08;8.30;;;7.60;;
35540;SDS011;21650;48.840;9.162;2023-08-30T07:20:34;8.20;;;7.40;;
35540;SDS011;21650;48.840;9.162;2023-08-30T07:23:01;7.77;;;6.97;;
35540;SDS011;21650;48.840;9.162;2023-08-30T07:25:29;7.30;;;6.60;;
35540;SDS011;21650;48.840;9.162;2023-08-30T07:27:55;9.47;;;7.20;;
35540;SDS011;21650;48.840;9.162;2023-08-30T07:30:21;7.40;;;6.70;;
35540;SDS011;21650;48.840;9.162;2023-08-30T07:32:46;8.43;;;6.40;;
35540;SDS011;21650;48.840;9.162;2023-08-30T07:35:13;7.50;;;6.67;;
35540;SDS011;21650;48.840;9.162;2023-08-30T07:37:38;9.27;;;6.83;;
35540;SDS011;21650;48.840;9.162;2023-08-30T07:40:05;11.53;;;8.60;;
35540;SDS011;21650;48.840;9.162;2023-08-30T07:42:32;8.57;;;7.77;;
35540;SDS011;21650;48.840;9.162;2023-08-30T07:44:57;8.23;;;7.40;;
35540;SDS011;21650;48.840;9.162;2023-08-30T07:47:23;10.67;;;8.20;;
35540;SDS011;21650;48.840;9.162;2023-08-30T07:49:48;9.83;;;8.10;;
35540;SDS011;21650;48.840;9.162;2023-08-30T07:52:14;9.50;;;8.33;;
35540;SDS011;21650;48.840;9.162;2023-08-30T07:54:40;9.30;;;8.00;;
35540;SDS011;21650;48.840;9.162;2023-08-30T07:57:06;10.23;;;8.33;;
35540;SDS011;21650;48.840;9.162;2023-08-30T07:59:35;10.47;;;8.57;;
35540;SDS011;21650;48.840;9.162;2023-08-30T08:02:01;9.50;;;7.87;;
35540;SDS011;21650;48.840;9.162;2023-08-30T08:04:28;9.63;;;7.90;;
35540;SDS011;21650;48.840;9.162;2023-08-30T08:06:54;8.33;;;7.23;;
35540;SDS011;21650;48.840;9.162;2023-08-30T08:09:19;10.10;;;8.30;;
35540;SDS011;21650;48.840;9.162;2023-08-30T08:11:46;8.60;;;7.73;;
35540;SDS011;21650;48.840;9.162;2023-08-30T08:14:13;9.13;;;8.13;;
35540;SDS011;21650;48.840;9.162;2023-08-30T08:16:39;10.03;;;8.63;;
35540;SDS011;21650;48.840;9.162;2023-08-30T08:19:04;13.00;;;8.50;;
35540;SDS011;21650;48.840;9.162;2023-08-30T08:21:31;8.20;;;7.27;;
35540;SDS011;21650;48.840;9.162;2023-08-30T08:23:57;9.67;;;8.27;;
35540;SDS011;21650;48.840;9.162;2023-08-30T08:26:22;7.73;;;7.03;;
35540;SDS011;21650;48.840;9.162;2023-08-30T08:28:48;10.23;;;7.33;;
35540;SDS011;21650;48.840;9.162;2023-08-30T08:31:14;8.60;;;7.70;;
35540;SDS011;21650;48.840;9.162;2023-08-30T08:33:39;10.07;;;7.80;;
35540;SDS011;21650;48.840;9.162;2023-08-30T08:36:05;8.57;;;7.70;;
35540;SDS011;21650;48.840;9.162;2023-08-30T08:38:31;10.47;;;7.23;;
35540;SDS011;21650;48.840;9.162;2023-08-30T08:41:02;8.30;;;7.50;;
35540;SDS011;21650;48.840;9.162;2023-08-30T08:43:30;9.13;;;6.27;;
35540;SDS011;21650;48.840;9.162;2023-08-30T08:46:01;7.03;;;5.60;;
35540;SDS011;21650;48.840;9.162;2023-08-30T08:48:28;6.87;;;6.27;;
35540;SDS011;21650;48.840;9.162;2023-08-30T08:50:56;6.10;;;5.50;;
35540;SDS011;21650;48.840;9.162;2023-08-30T08:53:22;6.80;;;5.30;;
35540;SDS011;21650;48.840;9.162;2023-08-30T08:55:48;6.67;;;5.70;;
35540;SDS011;21650;48.840;9.162;2023-08-30T08:58:14;8.23;;;6.13;;
35540;SDS011;21650;48.840;9.162;2023-08-30T09:00:43;5.97;;;5.37;;
35540;SDS011;21650;48.840;9.162;2023-08-30T09:03:10;8.73;;;5.17;;
35540;SDS011;21650;48.840;9.162;2023-08-30T09:05:39;5.60;;;4.30;;
35540;SDS011;21650;48.840;9.162;2023-08-30T09:08:06;7.07;;;4.33;;
35540;SDS011;21650;48.840;9.162;2023-08-30T09:10:32;4.70;;;4.30;;
35540;SDS011;21650;48.840;9.162;2023-08-30T09:12:58;4.70;;;4.13;;
35540;SDS011;21650;48.840;9.162;2023-08-30T09:15:30;4.57;;;4.03;;
35540;SDS011;21650;48.840;9.162;2023-08-30T09:17:59;3.87;;;3.53;;
35540;SDS011;21650;48.840;9.162;2023-08-30T09:20:25;4.13;;;3.73;;
35540;SDS011;21650;48.840;9.162;2023-08-30T09:22:51;3.97;;;3.40;;
35540;SDS011;21650;48.840;9.162;2023-08-30T09:25:23;4.97;;;3.40;;
35540;SDS011;21650;48.840;9.162;2023-08-30T09:27:50;4.23;;;3.10;;
35540;SDS011;21650;48.840;9.162;2023-08-30T09:30:22;4.30;;;3.50;;
35540;SDS011;21650;48.840;9.162;2023-08-30T09:32:48;3.47;;;2.70;;
35540;SDS011;21650;48.840;9.162;2023-08-30T09:35:13;3.30;;;2.60;;
35540;SDS011;21650;48.840;9.162;2023-08-30T09:37:39;3.53;;;2.97;;
35540;SDS011;21650;48.840;9.162;2023-08-30T09:40:05;3.03;;;2.63;;
35540;SDS011;21650;48.840;9.162;2023-08-30T09:42:31;2.60;;;2.40;;
35540;SDS011;21650;48.840;9.162;2023-08-30T09:44:57;2.47;;;2.27;;
35540;SDS011;21650;48.840;9.162;2023-08-30T09:47:25;3.93;;;2.33;;
35540;SDS011;21650;48.840;9.162;2023-08-30T09:49:52;3.17;;;2.40;;
35540;SDS011;21650;48.840;9.162;2023-08-30T09:52:20;2.63;;;2.43;;
35540;SDS011;21650;48.840;9.162;2023-08-30T09:54:50;4.13;;;2.80;;
35540;SDS011;21650;48.840;9.162;2023-08-30T09:57:16;3.73;;;2.57;;
35540;SDS011;21650;48.840;9.162;2023-08-30T09:59:43;2.90;;;2.57;;
35540;SDS011;21650;48.840;9.162;2023-08-30T10:02:11;3.73;;;3.40;;
35540;SDS011;21650;48.840;9.162;2023-08-30T10:04:39;3.27;;;2.13;;
35540;SDS011;21650;48.840;9.162;2023-08-30T10:07:05;2.40;;;2.20;;
35540;SDS011;21650;48.840;9.162;2023-08-30T10:09:32;3.67;;;2.20;;
35540;SDS011;21650;48.840;9.162;2023-08-30T10:11:58;2.50;;;2.30;;
35540;SDS011;21650;48.840;9.162;2023-08-30T10:14:26;3.27;;;2.27;;
35540;SDS011;21650;48.840;9.162;2023-08-30T10:16:52;2.40;;;2.20;;
35540;SDS011;21650;48.840;9.162;2023-08-30T10:19:27;2.77;;;2.10;;
35540;SDS011;21650;48.840;9.162;2023-08-30T10:21:54;2.50;;;2.10;;
35540;SDS011;21650;48.840;9.162;2023-08-30T10:24:25;3.07;;;2.20;;
35540;SDS011;21650;48.840;9.162;2023-08-30T10:26:53;2.87;;;2.00;;
35540;SDS011;21650;48.840;9.162;2023-08-30T10:29:20;2.23;;;2.03;;
35540;SDS011;21650;48.840;9.162;2023-08-30T10:31:48;1.93;;;1.60;;
35540;SDS011;21650;48.840;9.162;2023-08-30T10:34:14;2.00;;;1.80;;
35540;SDS011;21650;48.840;9.162;2023-08-30T10:36:44;4.10;;;2.17;;
35540;SDS011;21650;48.840;9.162;2023-08-30T10:39:14;2.30;;;2.10;;
35540;SDS011;21650;48.840;9.162;2023-08-30T10:41:55;1.80;;;1.70;;
35540;SDS011;21650;48.840;9.162;2023-08-30T10:44:22;2.30;;;2.10;;
35540;SDS011;21650;48.840;9.162;2023-08-30T10:46:51;2.00;;;1.87;;
35540;SDS011;21650;48.840;9.162;2023-08-30T10:49:19;3.07;;;2.17;;
35540;SDS011;21650;48.840;9.162;2023-08-30T10:51:53;3.40;;;2.40;;
35540;SDS011;21650;48.840;9.162;2023-08-30T10:54:20;2.20;;;2.00;;
35540;SDS011;21650;48.840;9.162;2023-08-30T10:56:55;2.30;;;1.80;;
35540;SDS011;21650;48.840;9.162;2023-08-30T10:59:26;2.03;;;1.80;;
35540;SDS011;21650;48.840;9.162;2023-08-30T11:01:54;2.60;;;2.40;;
35540;SDS011;21650;48.840;9.162;2023-08-30T11:04:21;2.33;;;1.97;;
35540;SDS011;21650;48.840;9.162;2023-08-30T11:06:48;3.53;;;1.90;;
35540;SDS011;21650;48.840;9.162;2023-08-30T11:09:18;4.07;;;2.40;;
35540;SDS011;21650;48.840;9.162;2023-08-30T11:11:46;4.27;;;2.30;;
35540;SDS011;21650;48.840;9.162;2023-08-30T11:14:12;4.40;;;2.10;;
35540;SDS011;21650;48.840;9.162;2023-08-30T11:16:38;2.53;;;2.33;;
35540;SDS011;21650;48.840;9.162;2023-08-30T11:19:04;2.17;;;1.97;;
35540;SDS011;21650;48.840;9.162;2023-08-30T11:21:33;2.43;;;2.23;;
35540;SDS011;21650;48.840;9.162;2023-08-30T11:24:03;3.33;;;2.07;;
35540;SDS011;21650;48.840;9.162;2023-08-30T11:26:29;3.77;;;2.00;;
35540;SDS011;21650;48.840;9.162;2023-08-30T11:28:55;2.80;;;2.20;;
35540;SDS011;21650;48.840;9.162;2023-08-30T11:31:22;3.83;;;2.30;;
35540;SDS011;21650;48.840;9.162;2023-08-30T11:33:51;2.80;;;2.60;;
35540;SDS011;21650;48.840;9.162;2023-08-30T11:36:24;2.37;;;2.17;;
35540;SDS011;21650;48.840;9.162;2023-08-30T11:38:55;4.47;;;2.70;;
35540;SDS011;21650;48.840;9.162;2023-08-30T11:41:22;3.93;;;2.63;;
35540;SDS011;21650;48.840;9.162;2023-08-30T11:43:48;2.67;;;2.47;;
35540;SDS011;21650;48.840;9.162;2023-08-30T11:46:14;4.23;;;3.13;;
35540;SDS011;21650;48.840;9.162;2023-08-30T11:48:41;5.27;;;4.07;;
35540;SDS011;21650;48.840;9.162;2023-08-30T11:51:08;4.07;;;3.30;;
35540;SDS011;21650;48.840;9.162;2023-08-30T11:53:34;5.27;;;4.50;;
35540;SDS011;21650;48.840;9.162;2023-08-30T11:56:00;4.93;;;4.53;;
35540;SDS011;21650;48.840;9.162;2023-08-30T11:58:26;5.33;;;4.83;;
35540;SDS011;21650;48.840;9.162;2023-08-30T12:00:52;5.50;;;5.00;;
35540;SDS011;21650;48.840;9.162;2023-08-30T12:03:22;8.43;;;5.13;;
35540;SDS011;21650;48.840;9.162;2023-08-30T12:05:48;6.67;;;4.93;;
35540;SDS011;21650;48.840;9.162;2023-08-30T12:08:23;7.40;;;5.33;;
35540;SDS011;21650;48.840;9.162;2023-08-30T12:10:49;5.60;;;5.00;;
35540;SDS011;21650;48.840;9.162;2023-08-30T12:13:22;9.30;;;5.13;;
35540;SDS011;21650;48.840;9.162;2023-08-30T12:15:51;5.07;;;4.60;;
35540;SDS011;21650;48.840;9.162;2023-08-30T12:18:20;4.70;;;4.30;;
35540;SDS011;21650;48.840;9.162;2023-08-30T12:20:58;7.17;;;3.87;;
35540;SDS011;21650;48.840;9.162;2023-08-30T12:23:26;5.70;;;4.57;;
35540;SDS011;21650;48.840;9.162;2023-08-30T12:26:05;5.30;;;4.80;;
35540;SDS011;21650;48.840;9.162;2023-08-30T12:28:32;6.40;;;5.10;;
35540;SDS011;21650;48.840;9.162;2023-08-30T12:30:59;4.97;;;4.57;;
35540;SDS011;21650;48.840;9.162;2023-08-30T12:33:24;4.43;;;4.03;;
35540;SDS011;21650;48.840;9.162;2023-08-30T12:35:50;5.23;;;4.70;;
35540;SDS011;21650;48.840;9.162;2023-08-30T12:38:17;4.13;;;3.70;;
35540;SDS011;21650;48.840;9.162;2023-08-30T12:40:45;3.87;;;3.53;;
35540;SDS011;21650;48.840;9.162;2023-08-30T12:43:13;4.17;;;3.47;;
35540;SDS011;21650;48.840;9.162;2023-08-30T12:45:42;5.27;;;4.40;;
35540;SDS011;21650;48.840;9.162;2023-08-30T12:48:08;4.27;;;3.70;;
35540;SDS011;21650;48.840;9.162;2023-08-30T12:50:37;5.20;;;4.30;;
35540;SDS011;21650;48.840;9.162;2023-08-30T12:53:04;4.00;;;3.70;;
35540;SDS011;21650;48.840;9.162;2023-08-30T12:55:30;4.50;;;4.10;;
35540;SDS011;21650;48.840;9.162;2023-08-30T12:57:56;5.70;;;4.10;;
35540;SDS011;21650;48.840;9.162;2023-08-30T13:00:22;4.63;;;3.40;;
35540;SDS011;21650;48.840;9.162;2023-08-30T13:02:48;3.80;;;3.47;;
35540;SDS011;21650;48.840;9.162;2023-08-30T13:05:14;3.20;;;2.90;;
35540;SDS011;21650;48.840;9.162;2023-08-30T13:07:40;5.00;;;3.53;;
35540;SDS011;21650;48.840;9.162;2023-08-30T13:10:06;3.97;;;3.57;;
35540;SDS011;21650;48.840;9.162;2023-08-30T13:12:32;3.43;;;3.13;;
35540;SDS011;21650;48.840;9.162;2023-08-30T13:14:58;3.93;;;3.53;;
35540;SDS011;21650;48.840;9.162;2023-08-30T13:17:23;3.37;;;3.07;;
35540;SDS011;21650;48.840;9.162;2023-08-30T13:19:49;3.70;;;3.40;;
35540;SDS011;21650;48.840;9.162;2023-08-30T13:22:15;3.50;;;3.20;;
35540;SDS011;21650;48.840;9.162;2023-08-30T13:24:41;4.90;;;4.23;;
35540;SDS011;21650;48.840;9.162;2023-08-30T13:27:07;3.63;;;3.10;;
35540;SDS011;21650;48.840;9.162;2023-08-30T13:29:32;3.97;;;2.77;;
35540;SDS011;21650;48.840;9.162;2023-08-30T13:31:58;6.87;;;3.80;;
35540;SDS011;21650;48.840;9.162;2023-08-30T13:34:23;5.53;;;3.07;;
35540;SDS011;21650;48.840;9.162;2023-08-30T13:36:49;3.83;;;3.10;;
35540;SDS011;21650;48.840;9.162;2023-08-30T13:39:15;3.93;;;3.60;;
35540;SDS011;21650;48.840;9.162;2023-08-30T13:41:40;3.60;;;3.30;;
35540;SDS011;21650;48.840;9.162;2023-08-30T13:44:06;4.23;;;3.20;;
35540;SDS011;21650;48.840;9.162;2023-08-30T13:46:32;3.70;;;3.40;;
35540;SDS011;21650;48.840;9.162;2023-08-30T13:48:58;3.50;;;3.13;;
35540;SDS011;21650;48.840;9.162;2023-08-30T13:51:24;5.30;;;2.97;;
35540;SDS011;21650;48.840;9.162;2023-08-30T13:53:51;2.67;;;2.47;;
35540;SDS011;21650;48.840;9.162;2023-08-30T13:56:18;5.43;;;2.73;;
35540;SDS011;21650;48.840;9.162;2023-08-30T13:58:44;4.30;;;3.33;;
35540;SDS011;21650;48.840;9.162;2023-08-30T14:01:10;5.83;;;3.10;;
35540;SDS011;21650;48.840;9.162;2023-08-30T14:03:38;2.93;;;2.63;;
35540;SDS011;21650;48.840;9.162;2023-08-30T14:06:03;4.40;;;2.70;;
35540;SDS011;21650;48.840;9.162;2023-08-30T14:08:30;4.27;;;2.80;;
35540;SDS011;21650;48.840;9.162;2023-08-30T14:10:56;3.33;;;3.03;;
35540;SDS011;21650;48.840;9.162;2023-08-30T14:13:21;3.13;;;2.60;;
35540;SDS011;21650;48.840;9.162;2023-08-30T14:15:47;4.60;;;2.93;;
35540;SDS011;21650;48.840;9.162;2023-08-30T14:18:13;3.27;;;2.87;;
35540;SDS011;21650;48.840;9.162;2023-08-30T14:20:40;4.63;;;2.87;;
35540;SDS011;21650;48.840;9.162;2023-08-30T14:23:06;4.63;;;2.60;;
35540;SDS011;21650;48.840;9.162;2023-08-30T14:25:31;4.47;;;2.83;;
35540;SDS011;21650;48.840;9.162;2023-08-30T14:27:57;5.07;;;2.80;;
35540;SDS011;21650;48.840;9.162;2023-08-30T14:30:24;3.47;;;2.40;;
35540;SDS011;21650;48.840;9.162;2023-08-30T14:32:50;3.67;;;2.30;;
35540;SDS011;21650;48.840;9.162;2023-08-30T14:35:16;3.30;;;2.93;;
35540;SDS011;21650;48.840;9.162;2023-08-30T14:37:42;5.03;;;2.83;;
35540;SDS011;21650;48.840;9.162;2023-08-30T14:40:07;3.17;;;2.60;;
35540;SDS011;21650;48.840;9.162;2023-08-30T14:42:33;2.70;;;2.50;;
35540;SDS011;21650;48.840;9.162;2023-08-30T14:44:59;3.47;;;2.80;;
35540;SDS011;21650;48.840;9.162;2023-08-30T14:47:24;7.03;;;4.33;;
35540;SDS011;21650;48.840;9.162;2023-08-30T14:49:50;3.30;;;2.97;;
35540;SDS011;21650;48.840;9.162;2023-08-30T14:52:16;3.43;;;2.80;;